Time;durP1;ratioP1;P1;durP2;ratioP2;P2;SDS_P1;SDS_P2;PMS_P1;PMS_P2;Temp;Humidity;BMP_temperature;BMP_pressure;BME280_temperature;BME280_humidity;BME280_pressure;Samples;Min_cycle;Max_cycle;Signal;HPM_P1;HPM_P2
2024/03/09 00:00:32;;;;;;;23.27;11.38;;;2.60;99.90;;;;;;5052133;28;20112;-89
2024/03/09 00:03:00;;;;;;;27.45;12.45;;;3.50;99.90;;;;;;5058483;28;20079;-89
2024/03/09 00:05:28;;;;;;;22.35;11.30;;;3.60;99.90;;;;;;5052509;28;20402;-89
2024/03/09 00:07:56;;;;;;;24.08;11.30;;;3.80;99.90;;;;;;5079785;28;20037;-89
2024/03/09 00:10:26;;;;;;;24.50;11.75;;;4.10;99.90;;;;;;5052972;28;20076;-89
2024/03/09 00:12:53;;;;;;;26.38;12.13;;;3.30;99.90;;;;;;5068612;28;20038;-89
2024/03/09 00:15:23;;;;;;;24.73;12.10;;;3.70;99.90;;;;;;5062800;28;20045;-89
2024/03/09 00:17:52;;;;;;;25.05;11.88;;;3.60;99.90;;;;;;5067511;28;20783;-89
2024/03/09 00:20:23;;;;;;;24.77;11.82;;;2.60;99.90;;;;;;5050971;28;20410;-89
2024/03/09 00:22:53;;;;;;;28.23;12.15;;;3.20;99.90;;;;;;5068335;28;20041;-89
2024/03/09 00:25:22;;;;;;;27.02;11.82;;;3.00;99.90;;;;;;5056285;28;20045;-89
2024/03/09 00:27:49;;;;;;;22.27;11.15;;;3.30;99.90;;;;;;5086132;28;20068;-89
2024/03/09 00:30:19;;;;;;;22.70;11.80;;;4.00;99.90;;;;;;5067053;28;20120;-89
2024/03/09 00:32:50;;;;;;;26.38;13.07;;;3.20;99.90;;;;;;5050848;28;20111;-89
2024/03/09 00:35:18;;;;;;;27.55;11.38;;;3.50;99.90;;;;;;5069129;28;20037;-89
2024/03/09 00:37:44;;;;;;;25.88;12.15;;;3.70;99.90;;;;;;5072419;28;20037;-89
2024/03/09 00:40:12;;;;;;;23.92;11.32;;;3.30;99.90;;;;;;5067242;28;20068;-89
2024/03/09 00:42:39;;;;;;;25.95;12.07;;;2.40;99.90;;;;;;5067130;28;20046;-89
2024/03/09 00:45:09;;;;;;;22.05;11.25;;;3.10;99.90;;;;;;5050644;28;20057;-90
2024/03/09 00:47:37;;;;;;;23.65;11.70;;;2.40;99.90;;;;;;5050489;28;20041;-89
2024/03/09 00:50:07;;;;;;;26.38;11.88;;;3.60;99.90;;;;;;5061294;28;20041;-89
2024/03/09 00:52:35;;;;;;;22.73;11.35;;;2.40;99.90;;;;;;5082467;28;20033;-88
2024/03/09 00:55:04;;;;;;;23.58;11.85;;;3.80;99.90;;;;;;5066837;28;20524;-89
2024/03/09 00:57:33;;;;;;;25.58;11.85;;;2.40;99.90;;;;;;5053833;28;20053;-89
2024/03/09 01:00:00;;;;;;;26.67;11.65;;;2.40;99.90;;;;;;5050187;28;20099;-88
2024/03/09 01:02:27;;;;;;;22.58;10.73;;;2.40;99.90;;;;;;5066640;28;20041;-89
2024/03/09 01:04:53;;;;;;;27.73;11.68;;;3.20;99.90;;;;;;5066829;28;20049;-89
2024/03/09 01:07:22;;;;;;;20.90;10.57;;;3.40;99.90;;;;;;5050132;28;20038;-89
2024/03/09 01:09:49;;;;;;;24.70;11.88;;;2.70;99.90;;;;;;5050327;28;20127;-89
2024/03/09 01:12:17;;;;;;;22.23;11.20;;;2.30;99.90;;;;;;5058418;28;20046;-89
2024/03/09 01:14:48;;;;;;;24.15;11.38;;;2.20;99.90;;;;;;5066563;28;20077;-89
2024/03/09 01:17:21;;;;;;;25.48;10.50;;;2.50;99.90;;;;;;5063379;28;20082;-89
2024/03/09 01:19:47;;;;;;;24.25;10.48;;;2.30;99.90;;;;;;5069766;28;20037;-89
2024/03/09 01:22:14;;;;;;;24.83;11.60;;;3.50;99.90;;;;;;5063609;28;20552;-89
2024/03/09 01:24:41;;;;;;;24.02;11.20;;;3.20;99.90;;;;;;5049928;28;20033;-89
2024/03/09 01:27:10;;;;;;;23.90;12.23;;;3.40;99.90;;;;;;5075593;28;20037;-88
2024/03/09 01:29:43;;;;;;;25.63;12.40;;;2.80;99.90;;;;;;5072840;28;20136;-88
2024/03/09 01:32:11;;;;;;;25.05;12.73;;;3.20;99.90;;;;;;5069857;28;20044;-89
2024/03/09 01:34:38;;;;;;;24.90;11.88;;;3.50;99.90;;;;;;5059414;28;20502;-89
2024/03/09 01:37:13;;;;;;;23.02;11.77;;;1.90;99.90;;;;;;5073866;28;20044;-89
2024/03/09 01:39:40;;;;;;;25.00;10.98;;;2.20;99.90;;;;;;5066772;28;20379;-88
2024/03/09 01:42:09;;;;;;;22.67;11.38;;;2.20;99.90;;;;;;5070148;28;20076;-89
2024/03/09 01:44:36;;;;;;;22.95;11.00;;;2.90;99.90;;;;;;5053685;28;20038;-88
2024/03/09 01:47:08;;;;;;;24.65;11.70;;;3.40;99.90;;;;;;5053429;28;20064;-89
2024/03/09 01:49:37;;;;;;;25.02;12.13;;;2.20;99.90;;;;;;5040709;28;20048;-89
2024/03/09 01:52:07;;;;;;;22.63;10.68;;;2.70;99.90;;;;;;5053072;28;20071;-89
2024/03/09 01:54:35;;;;;;;28.13;12.85;;;2.10;99.90;;;;;;5078342;28;20037;-88
2024/03/09 01:57:01;;;;;;;26.17;12.38;;;2.70;99.90;;;;;;5070782;28;20407;-89
2024/03/09 01:59:29;;;;;;;25.33;11.77;;;2.70;99.90;;;;;;5070041;28;20033;-89
2024/03/09 02:02:01;;;;;;;27.33;12.43;;;2.10;99.90;;;;;;5058939;28;20038;-88
2024/03/09 02:04:30;;;;;;;28.05;12.50;;;3.00;99.90;;;;;;5069729;28;20041;-89
2024/03/09 02:06:57;;;;;;;24.38;12.43;;;3.30;99.90;;;;;;5066518;28;20067;-89
2024/03/09 02:09:25;;;;;;;23.40;11.63;;;3.30;99.90;;;;;;5050640;28;20041;-89
2024/03/09 02:11:53;;;;;;;28.58;12.05;;;2.00;99.90;;;;;;5075669;28;20071;-89
2024/03/09 02:14:20;;;;;;;25.73;12.85;;;2.10;99.90;;;;;;5061027;28;20433;-89
2024/03/09 02:16:49;;;;;;;29.08;13.38;;;2.10;99.90;;;;;;5074821;28;20041;-88
2024/03/09 02:19:16;;;;;;;26.35;12.93;;;2.80;99.90;;;;;;5078015;28;20045;-89
2024/03/09 02:21:45;;;;;;;25.88;12.45;;;2.00;99.90;;;;;;5056799;28;20623;-89
2024/03/09 02:24:19;;;;;;;25.38;12.02;;;2.40;99.90;;;;;;5053162;28;20037;-89
2024/03/09 02:26:47;;;;;;;28.90;12.07;;;2.60;99.90;;;;;;5072833;28;20037;-89
2024/03/09 02:29:14;;;;;;;30.23;12.45;;;2.00;99.90;;;;;;5052685;28;20111;-89
2024/03/09 02:31:41;;;;;;;25.48;12.30;;;2.00;99.90;;;;;;5065968;28;20049;-89
2024/03/09 02:34:07;;;;;;;24.80;12.55;;;2.00;99.90;;;;;;5081742;28;20033;-88
2024/03/09 02:36:38;;;;;;;26.48;12.40;;;1.80;99.90;;;;;;5069144;28;20391;-89
2024/03/09 02:39:09;;;;;;;25.27;12.25;;;1.90;99.90;;;;;;5068850;28;20120;-88
2024/03/09 02:41:35;;;;;;;26.75;12.65;;;3.00;99.90;;;;;;5076972;28;20257;-89
2024/03/09 02:44:02;;;;;;;28.40;13.23;;;1.90;99.90;;;;;;5074016;28;20045;-88
2024/03/09 02:46:29;;;;;;;24.38;12.48;;;2.80;99.90;;;;;;5068997;28;20037;-89
2024/03/09 02:48:56;;;;;;;26.98;13.65;;;1.90;99.90;;;;;;5065542;28;20469;-88
2024/03/09 02:51:26;;;;;;;25.50;12.15;;;2.80;99.90;;;;;;5078009;28;20041;-89
2024/03/09 02:53:53;;;;;;;28.27;13.15;;;1.80;99.90;;;;;;5072442;28;20045;-89
2024/03/09 02:56:20;;;;;;;26.98;12.80;;;2.30;99.90;;;;;;5068956;28;20076;-89
2024/03/09 02:58:48;;;;;;;26.50;12.65;;;2.80;99.90;;;;;;5065282;28;20487;-89
2024/03/09 03:01:16;;;;;;;26.70;12.63;;;1.80;99.90;;;;;;5068345;28;20116;-89
2024/03/09 03:03:46;;;;;;;28.63;12.98;;;1.80;99.90;;;;;;5069082;28;20433;-89
2024/03/09 03:06:18;;;;;;;29.33;12.88;;;3.10;99.90;;;;;;5068695;28;20418;-89
2024/03/09 03:08:50;;;;;;;31.60;12.90;;;1.80;99.90;;;;;;5069638;28;20053;-89
2024/03/09 03:11:17;;;;;;;25.52;12.88;;;2.10;99.90;;;;;;5061547;28;20041;-89
2024/03/09 03:13:45;;;;;;;26.08;13.05;;;1.70;99.90;;;;;;5071711;28;20686;-89
2024/03/09 03:16:25;;;;;;;28.98;12.70;;;1.70;99.90;;;;;;5068409;28;20113;-89
2024/03/09 03:18:57;;;;;;;28.98;13.95;;;1.70;99.90;;;;;;5068585;28;20033;-89
2024/03/09 03:21:28;;;;;;;29.88;13.77;;;1.70;99.90;;;;;;5063320;28;20566;-89
2024/03/09 03:23:55;;;;;;;28.50;13.82;;;1.70;99.90;;;;;;5067801;28;20037;-89
2024/03/09 03:26:22;;;;;;;28.10;13.93;;;1.60;99.90;;;;;;5067894;28;20537;-89
2024/03/09 03:28:50;;;;;;;28.10;13.57;;;2.60;99.90;;;;;;5067348;28;20088;-89
2024/03/09 03:31:19;;;;;;;27.65;13.30;;;2.80;99.90;;;;;;5066672;28;20498;-89
2024/03/09 03:33:46;;;;;;;27.73;13.32;;;2.70;99.90;;;;;;5070835;28;20471;-89
2024/03/09 03:36:18;;;;;;;30.60;14.07;;;1.60;99.90;;;;;;5066768;28;20049;-89
2024/03/09 03:38:49;;;;;;;30.80;14.02;;;1.40;99.90;;;;;;5075891;28;20048;-89
2024/03/09 03:41:18;;;;;;;33.65;14.23;;;2.60;99.90;;;;;;5065374;28;20073;-89
2024/03/09 03:43:45;;;;;;;28.55;13.70;;;1.40;99.90;;;;;;5054796;28;20045;-88
2024/03/09 03:46:14;;;;;;;29.40;13.85;;;1.50;99.90;;;;;;5057492;28;20519;-88
2024/03/09 03:48:44;;;;;;;25.95;13.48;;;;;;;;;;5087756;28;20049;-89
2024/03/09 03:51:12;;;;;;;30.88;15.20;;;1.50;99.90;;;;;;5053790;28;20497;-88
2024/03/09 03:53:39;;;;;;;26.60;12.35;;;2.10;99.90;;;;;;5075542;28;20041;-89
2024/03/09 03:56:09;;;;;;;28.15;14.27;;;2.60;99.90;;;;;;5052134;28;20037;-89
2024/03/09 03:58:39;;;;;;;28.48;13.98;;;2.70;99.90;;;;;;5053059;28;20095;-88
2024/03/09 04:01:06;;;;;;;29.83;14.55;;;1.40;99.90;;;;;;5077710;28;20037;-89
2024/03/09 04:03:37;;;;;;;33.60;15.13;;;1.40;99.90;;;;;;5067300;28;20075;-89
2024/03/09 04:06:04;;;;;;;29.80;14.90;;;1.50;99.90;;;;;;5050894;28;20037;-89
2024/03/09 04:08:31;;;;;;;29.02;14.30;;;1.30;99.90;;;;;;5050611;28;20098;-89
2024/03/09 04:10:59;;;;;;;30.92;15.05;;;2.60;99.90;;;;;;5064027;28;20498;-89
2024/03/09 04:13:27;;;;;;;30.35;15.15;;;2.50;99.90;;;;;;5067263;28;20053;-89
2024/03/09 04:15:55;;;;;;;27.80;13.68;;;1.20;99.90;;;;;;5064210;28;20037;-89
2024/03/09 04:18:22;;;;;;;30.70;14.60;;;2.30;99.90;;;;;;5072665;28;20065;-89
2024/03/09 04:20:49;;;;;;;32.72;15.63;;;1.40;99.90;;;;;;5067831;28;20552;-89
2024/03/09 04:23:16;;;;;;;31.55;15.25;;;1.20;99.90;;;;;;5067216;28;20050;-90
2024/03/09 04:25:44;;;;;;;32.50;15.45;;;2.60;99.90;;;;;;5050820;28;20502;-89
2024/03/09 04:28:13;;;;;;;29.42;14.05;;;2.70;99.90;;;;;;5060009;28;20036;-89
2024/03/09 04:30:42;;;;;;;31.13;15.45;;;2.20;99.90;;;;;;5067049;28;20064;-89
2024/03/09 04:33:11;;;;;;;30.88;14.93;;;1.20;99.90;;;;;;5055667;28;20602;-89
2024/03/09 04:35:40;;;;;;;37.08;16.20;;;0.80;99.90;;;;;;5073298;28;20048;-89
2024/03/09 04:38:06;;;;;;;29.20;14.88;;;1.40;99.90;;;;;;5067167;28;20037;-88
2024/03/09 04:40:36;;;;;;;34.65;15.45;;;1.30;99.90;;;;;;5067275;28;20040;-89
2024/03/09 04:43:03;;;;;;;30.98;15.07;;;2.50;99.90;;;;;;5067120;28;20056;-87
2024/03/09 04:45:32;;;;;;;33.08;15.38;;;1.20;99.90;;;;;;5067084;28;20498;-89
2024/03/09 04:47:59;;;;;;;33.75;16.95;;;2.50;99.90;;;;;;5055268;28;20423;-89
2024/03/09 04:50:26;;;;;;;33.97;16.05;;;1.30;99.90;;;;;;5046209;28;20050;-88
2024/03/09 04:52:53;;;;;;;33.20;15.95;;;2.40;99.90;;;;;;5066741;28;20042;-88
2024/03/09 04:55:30;;;;;;;29.95;14.63;;;2.50;99.90;;;;;;5070867;28;20049;-89
2024/03/09 04:57:58;;;;;;;35.72;15.10;;;1.00;99.90;;;;;;5077162;28;20037;-89
2024/03/09 05:00:28;;;;;;;33.25;15.85;;;1.90;99.90;;;;;;5042409;28;20033;-89
2024/03/09 05:02:55;;;;;;;33.83;16.58;;;2.40;99.90;;;;;;5066856;28;20044;-88
2024/03/09 05:05:22;;;;;;;33.72;16.20;;;1.00;99.90;;;;;;5079205;28;20454;-88
2024/03/09 05:07:51;;;;;;;33.50;16.40;;;2.30;99.90;;;;;;5087024;28;20518;-89
2024/03/09 05:10:19;;;;;;;34.88;16.73;;;1.00;99.90;;;;;;5070079;28;20033;-89
2024/03/09 05:12:53;;;;;;;35.75;16.85;;;1.10;99.90;;;;;;5061970;28;20131;-89
2024/03/09 05:15:24;;;;;;;36.70;16.40;;;1.90;99.90;;;;;;5072565;28;20034;-89
2024/03/09 05:17:51;;;;;;;35.22;16.35;;;1.10;99.90;;;;;;5053922;28;20099;-89
2024/03/09 05:20:22;;;;;;;32.95;16.02;;;2.20;99.90;;;;;;5067316;28;20120;-89
2024/03/09 05:22:50;;;;;;;34.83;17.52;;;1.90;99.90;;;;;;5079711;28;20040;-88
2024/03/09 05:25:18;;;;;;;36.70;16.63;;;1.50;99.90;;;;;;5053570;28;20496;-88
2024/03/09 05:27:45;;;;;;;35.00;17.45;;;2.30;99.90;;;;;;5053822;28;20047;-89
2024/03/09 05:30:15;;;;;;;39.58;17.95;;;1.70;99.90;;;;;;5069545;28;20049;-89
2024/03/09 05:32:42;;;;;;;35.97;17.25;;;1.00;99.90;;;;;;5069323;28;20052;-89
2024/03/09 05:35:13;;;;;;;33.65;17.30;;;1.00;99.90;;;;;;5048436;28;20038;-88
2024/03/09 05:37:40;;;;;;;35.78;16.85;;;2.00;99.90;;;;;;5058960;28;20068;-88
2024/03/09 05:40:09;;;;;;;35.85;17.25;;;1.90;99.90;;;;;;5070210;28;20116;-88
2024/03/09 05:42:43;;;;;;;41.30;18.33;;;1.00;99.90;;;;;;5074254;28;20398;-89
2024/03/09 05:45:15;;;;;;;35.63;17.15;;;1.00;99.90;;;;;;5069442;28;20052;-89
2024/03/09 05:47:50;;;;;;;38.17;16.88;;;1.70;99.90;;;;;;5069441;28;20143;-88
2024/03/09 05:50:17;;;;;;;38.08;18.38;;;2.20;99.90;;;;;;5062236;28;20121;-89
2024/03/09 05:52:48;;;;;;;39.95;18.15;;;0.90;99.90;;;;;;5081990;28;20113;-88
2024/03/09 05:55:19;;;;;;;38.65;18.80;;;0.90;99.90;;;;;;5066654;28;20152;-89
2024/03/09 05:57:49;;;;;;;41.70;17.70;;;0.90;99.90;;;;;;5065836;28;20106;-88
2024/03/09 06:00:17;;;;;;;39.63;17.80;;;0.80;99.90;;;;;;5082932;28;20051;-89
2024/03/09 06:02:44;;;;;;;39.05;17.85;;;0.90;99.90;;;;;;5069595;28;20482;-88
2024/03/09 06:05:11;;;;;;;42.10;19.80;;;0.90;99.90;;;;;;5069399;28;20029;-89
2024/03/09 06:07:44;;;;;;;38.05;17.67;;;2.10;99.90;;;;;;5052816;28;20120;-89
2024/03/09 06:10:14;;;;;;;38.67;18.15;;;1.80;99.90;;;;;;5080087;28;20040;-89
2024/03/09 06:12:47;;;;;;;39.70;18.80;;;1.20;99.90;;;;;;5059679;28;20059;-88
2024/03/09 06:15:14;;;;;;;38.97;18.15;;;0.80;99.90;;;;;;5073718;28;20056;-89
2024/03/09 06:17:49;;;;;;;41.20;19.13;;;0.70;99.90;;;;;;5069359;28;20087;-88
2024/03/09 06:20:17;;;;;;;38.40;19.35;;;0.90;99.90;;;;;;5072963;28;20080;-88
2024/03/09 06:22:47;;;;;;;39.20;19.85;;;2.10;99.90;;;;;;5078980;28;20043;-88
2024/03/09 06:25:29;;;;;;;40.03;19.50;;;2.40;99.90;;;;;;5052592;28;20037;-89
2024/03/09 06:27:56;;;;;;;40.15;19.05;;;2.50;99.90;;;;;;5081871;28;20498;-89
2024/03/09 06:30:24;;;;;;;37.45;18.00;;;2.30;99.90;;;;;;5087995;28;20057;-89
2024/03/09 06:32:51;;;;;;;39.38;18.13;;;1.70;99.90;;;;;;5075442;28;20029;-88
2024/03/09 06:35:19;;;;;;;44.22;19.67;;;2.30;99.90;;;;;;5077609;28;20453;-89
2024/03/09 06:37:46;;;;;;;39.53;19.42;;;2.20;99.90;;;;;;5070749;28;20034;-89
2024/03/09 06:40:13;;;;;;;40.20;18.58;;;0.90;99.90;;;;;;5069249;28;20087;-89
2024/03/09 06:42:40;;;;;;;39.05;18.67;;;0.90;99.90;;;;;;5052151;28;20037;-88
2024/03/09 06:45:08;;;;;;;36.53;18.73;;;0.90;99.90;;;;;;5066897;28;20073;-88
2024/03/09 06:47:34;;;;;;;38.67;18.83;;;0.90;99.90;;;;;;5066196;28;20050;-88
2024/03/09 06:50:04;;;;;;;38.80;18.40;;;2.00;99.90;;;;;;5068939;28;20041;-88
2024/03/09 06:52:33;;;;;;;43.60;19.92;;;1.80;99.90;;;;;;5077522;28;20047;-89
2024/03/09 06:54:59;;;;;;;37.55;18.17;;;1.60;99.90;;;;;;5074809;28;20124;-88
2024/03/09 06:57:26;;;;;;;39.83;19.63;;;1.70;99.90;;;;;;5063463;28;20450;-88
2024/03/09 06:59:54;;;;;;;37.30;19.15;;;1.00;99.90;;;;;;5068430;28;20041;-88
2024/03/09 07:02:23;;;;;;;44.55;19.65;;;1.00;99.90;;;;;;5054486;28;20042;-88
2024/03/09 07:04:51;;;;;;;41.55;19.05;;;2.50;99.90;;;;;;5068151;28;20115;-89
2024/03/09 07:07:18;;;;;;;37.67;19.48;;;1.20;99.90;;;;;;5068493;28;20044;-88
2024/03/09 07:09:49;;;;;;;39.67;18.35;;;1.30;99.90;;;;;;5051059;28;20483;-89
2024/03/09 07:12:16;;;;;;;40.05;18.45;;;2.50;99.90;;;;;;5050459;28;20045;-89
2024/03/09 07:14:45;;;;;;;43.35;19.73;;;1.30;99.90;;;;;;5054271;28;20564;-88
2024/03/09 07:17:17;;;;;;;40.80;20.77;;;1.40;99.90;;;;;;5071990;28;20030;-89
2024/03/09 07:19:45;;;;;;;45.25;19.83;;;2.90;99.90;;;;;;5076577;28;20037;-88
2024/03/09 07:22:13;;;;;;;41.00;19.90;;;2.80;99.90;;;;;;5072130;28;20039;-89
2024/03/09 07:24:43;;;;;;;39.92;19.83;;;1.40;99.90;;;;;;5068266;28;20092;-89
2024/03/09 07:27:12;;;;;;;40.33;19.95;;;2.50;99.90;;;;;;5052766;28;20065;-89
2024/03/09 07:29:38;;;;;;;41.33;19.33;;;2.40;99.90;;;;;;5053079;28;20096;-89
2024/03/09 07:32:06;;;;;;;41.65;20.40;;;3.00;99.90;;;;;;5069397;28;20065;-88
2024/03/09 07:34:33;;;;;;;41.80;20.55;;;1.70;99.90;;;;;;5067446;28;20423;-89
2024/03/09 07:37:00;;;;;;;42.58;19.55;;;3.00;99.90;;;;;;5067838;28;20030;-88
2024/03/09 07:39:30;;;;;;;42.13;19.80;;;1.80;99.90;;;;;;5067996;28;20048;-89
2024/03/09 07:41:59;;;;;;;44.45;20.42;;;2.90;99.90;;;;;;5051247;28;20402;-89
2024/03/09 07:44:26;;;;;;;38.78;19.10;;;;;;;;;;5066748;28;20045;-89
2024/03/09 07:46:55;;;;;;;47.42;20.83;;;2.00;99.90;;;;;;5077092;28;20052;-89
2024/03/09 07:49:22;;;;;;;43.53;19.67;;;3.30;99.90;;;;;;5058401;28;20421;-88
2024/03/09 07:51:49;;;;;;;41.15;19.27;;;2.80;99.90;;;;;;5069862;28;20045;-89
2024/03/09 07:54:16;;;;;;;42.08;18.80;;;3.50;99.90;;;;;;5067438;28;20050;-88
2024/03/09 07:56:43;;;;;;;42.38;20.20;;;3.80;99.90;;;;;;5072770;28;20037;-89
2024/03/09 07:59:11;;;;;;;40.75;19.63;;;2.40;99.90;;;;;;5071062;28;20043;-89
2024/03/09 08:01:38;;;;;;;38.63;19.90;;;3.80;99.90;;;;;;5075683;28;20033;-89
2024/03/09 08:04:05;;;;;;;41.60;19.33;;;3.30;99.90;;;;;;5072342;28;20406;-89
2024/03/09 08:06:31;;;;;;;40.95;19.98;;;2.70;99.90;;;;;;5051317;28;20042;-90
2024/03/09 08:08:58;;;;;;;45.83;18.90;;;4.00;99.90;;;;;;5050434;28;20045;-90
2024/03/09 08:11:25;;;;;;;39.20;19.30;;;4.30;99.90;;;;;;5057388;28;20607;-91
2024/03/09 08:13:52;;;;;;;41.08;20.70;;;2.90;99.90;;;;;;5084391;28;20064;-91
2024/03/09 08:16:19;;;;;;;41.55;20.83;;;4.40;99.90;;;;;;5087049;28;20501;-92
2024/03/09 08:18:48;;;;;;;41.33;21.00;;;4.00;99.90;;;;;;5050935;28;20039;-91
2024/03/09 08:21:15;;;;;;;40.33;19.83;;;3.20;99.90;;;;;;5043983;28;20072;-90
2024/03/09 08:23:42;;;;;;;40.63;20.15;;;3.30;99.90;;;;;;5061884;28;20075;-89
2024/03/09 08:26:09;;;;;;;40.30;19.38;;;4.60;99.90;;;;;;5050555;28;20079;-90
2024/03/09 08:28:36;;;;;;;38.65;20.73;;;3.30;99.90;;;;;;5050854;28;20046;-89
2024/03/09 08:31:06;;;;;;;37.72;18.67;;;4.50;99.90;;;;;;5066331;28;20719;-90
2024/03/09 08:33:33;;;;;;;40.28;20.58;;;3.70;99.90;;;;;;5040632;28;20124;-90
2024/03/09 08:36:06;;;;;;;45.35;20.25;;;4.30;99.90;;;;;;5059156;28;20037;-89
2024/03/09 08:38:50;;;;;;;38.50;19.08;;;4.00;99.90;;;;;;5077546;28;20049;-89
2024/03/09 08:41:22;;;;;;;38.33;19.13;;;5.50;99.90;;;;;;5063900;28;20044;-89
2024/03/09 08:43:48;;;;;;;40.33;20.35;;;4.20;99.90;;;;;;5075932;28;20046;-90
2024/03/09 08:46:17;;;;;;;38.30;19.40;;;5.70;99.90;;;;;;5078618;28;20045;-90
2024/03/09 08:48:43;;;;;;;33.10;18.35;;;5.10;99.90;;;;;;5079993;28;20044;-89
2024/03/09 08:51:10;;;;;;;37.40;17.60;;;5.60;99.90;;;;;;5076170;28;20033;-90
2024/03/09 08:53:38;;;;;;;33.70;18.25;;;5.60;99.90;;;;;;5073477;28;20510;-90
2024/03/09 08:56:05;;;;;;;39.03;18.52;;;6.00;99.90;;;;;;5051261;28;20034;-90
2024/03/09 08:58:34;;;;;;;37.28;18.80;;;4.80;99.90;;;;;;5081194;28;20544;-90
2024/03/09 09:01:01;;;;;;;35.40;18.67;;;6.00;99.90;;;;;;5057084;28;20574;-90
2024/03/09 09:03:28;;;;;;;33.50;18.17;;;4.90;99.90;;;;;;5074639;28;20049;-96
2024/03/09 09:05:59;;;;;;;36.45;18.42;;;5.10;99.90;;;;;;5058894;28;20037;-95
2024/03/09 09:08:31;;;;;;;35.58;18.48;;;5.00;99.90;;;;;;5092277;28;20087;-95
2024/03/09 09:11:00;;;;;;;37.85;18.10;;;4.40;99.90;;;;;;5076282;28;20045;-96
2024/03/09 09:13:27;;;;;;;34.65;18.92;;;6.00;99.90;;;;;;5069115;28;20030;-94
2024/03/09 09:15:54;;;;;;;34.05;18.45;;;6.70;99.90;;;;;;5076580;28;20045;-96
2024/03/09 09:18:28;;;;;;;32.90;17.05;;;4.60;99.90;;;;;;5045760;28;20034;-94
2024/03/09 09:20:58;;;;;;;32.22;16.85;;;5.60;99.90;;;;;;5069949;28;20072;-95
2024/03/09 09:23:25;;;;;;;32.95;17.50;;;5.10;99.90;;;;;;5085613;28;20038;-96
2024/03/09 09:25:57;;;;;;;38.22;18.98;;;5.70;99.90;;;;;;5080963;28;20036;-96
2024/03/09 09:28:25;;;;;;;33.67;16.65;;;5.50;99.90;;;;;;5069158;28;20152;-96
2024/03/09 09:30:58;;;;;;;29.63;16.67;;;6.20;99.90;;;;;;5083447;28;20060;-95
2024/03/09 09:33:32;;;;;;;35.50;17.20;;;6.00;99.90;;;;;;5069143;28;20072;-96
2024/03/09 09:35:59;;;;;;;32.10;17.40;;;6.10;99.90;;;;;;5077654;28;20117;-96
2024/03/09 09:38:26;;;;;;;31.35;16.95;;;7.00;99.90;;;;;;5083201;28;20057;-96
2024/03/09 09:41:00;;;;;;;36.63;17.25;;;5.50;99.90;;;;;;5095204;28;20034;-96
2024/03/09 09:43:48;;;;;;;32.42;17.67;;;6.10;99.90;;;;;;5109063;28;20079;-96
2024/03/09 09:46:22;;;;;;;34.00;17.50;;;7.20;99.90;;;;;;5088353;28;20049;-96
2024/03/09 09:48:55;;;;;;;30.98;16.27;;;6.50;99.90;;;;;;5049796;28;20037;-96
2024/03/09 09:51:28;;;;;;;32.38;16.42;;;6.90;99.90;;;;;;5083772;28;20422;-96
2024/03/09 09:54:04;;;;;;;29.30;16.27;;;6.40;99.90;;;;;;5085096;28;20033;-96
2024/03/09 09:56:31;;;;;;;32.17;16.13;;;6.60;99.90;;;;;;5084460;28;20033;-96
2024/03/09 09:58:59;;;;;;;29.65;17.00;;;6.50;99.90;;;;;;5067740;28;20056;-96
2024/03/09 10:01:38;;;;;;;30.35;16.83;;;6.80;99.90;;;;;;5073236;28;20106;-96
2024/03/09 10:04:18;;;;;;;32.42;16.27;;;7.00;99.90;;;;;;5066164;28;20041;-96
2024/03/09 10:06:50;;;;;;;29.27;16.17;;;7.20;99.90;;;;;;5087440;28;20044;-95
2024/03/09 10:09:30;;;;;;;33.08;17.33;;;7.00;99.90;;;;;;5058198;28;20048;-96
2024/03/09 10:11:57;;;;;;;31.48;17.23;;;8.00;99.90;;;;;;5075765;28;20514;-96
2024/03/09 10:14:32;;;;;;;31.20;16.08;;;7.50;99.90;;;;;;5078583;28;20042;-96
2024/03/09 10:17:22;;;;;;;32.25;16.38;;;7.30;99.90;;;;;;5081824;28;20045;-95
2024/03/09 10:20:02;;;;;;;28.25;15.07;;;7.50;99.90;;;;;;5078867;28;20061;-96
2024/03/09 10:22:43;;;;;;;29.50;16.02;;;7.10;99.90;;;;;;5073113;28;20037;-96
2024/03/09 10:25:33;;;;;;;29.30;16.30;;;6.80;99.90;;;;;;5069972;28;20069;-94
2024/03/09 10:28:10;;;;;;;29.48;16.10;;;7.60;99.90;;;;;;5071333;28;20022;-96
2024/03/09 10:31:26;;;;;;;28.63;15.70;;;6.50;99.90;;;;;;5086781;28;20057;-94
2024/03/09 10:34:13;;;;;;;30.88;16.42;;;7.50;99.90;;;;;;5061947;28;20048;-96
2024/03/09 10:37:07;;;;;;;27.60;16.00;;;7.00;99.90;;;;;;5069638;28;20051;-96
2024/03/09 10:40:17;;;;;;;25.52;14.95;;;6.70;99.90;;;;;;5070802;28;20030;-93
2024/03/09 10:43:02;;;;;;;30.92;17.20;;;7.70;99.90;;;;;;5088462;28;20021;-96
2024/03/09 10:46:01;;;;;;;31.63;16.70;;;7.60;99.90;;;;;;5082497;28;20043;-95
2024/03/09 10:48:53;;;;;;;32.40;16.77;;;6.80;99.90;;;;;;5086262;28;20052;-96
2024/03/09 10:51:38;;;;;;;29.42;15.82;;;7.10;99.90;;;;;;5072038;28;20064;-95
2024/03/09 10:54:26;;;;;;;30.05;16.08;;;7.80;99.90;;;;;;5068869;28;20072;-96
2024/03/09 10:57:09;;;;;;;30.33;15.80;;;7.90;99.90;;;;;;5085977;28;20042;-96
2024/03/09 10:59:46;;;;;;;28.45;16.45;;;8.10;99.90;;;;;;5054505;28;20072;-95
2024/03/09 11:02:17;;;;;;;31.48;16.00;;;8.20;99.90;;;;;;5055452;28;20098;-96
2024/03/09 11:04:55;;;;;;;35.47;16.42;;;7.90;99.90;;;;;;5085285;28;20033;-96
2024/03/09 11:07:25;;;;;;;27.52;15.05;;;8.30;99.90;;;;;;5083786;28;20072;-96
2024/03/09 11:09:58;;;;;;;30.77;16.17;;;7.50;99.90;;;;;;5075372;28;20099;-96
2024/03/09 11:12:38;;;;;;;26.95;15.25;;;8.80;99.90;;;;;;5086678;28;20100;-96
2024/03/09 11:15:13;;;;;;;27.55;15.52;;;8.30;99.90;;;;;;5083902;28;20139;-96
2024/03/09 11:17:55;;;;;;;25.70;14.45;;;9.30;99.90;;;;;;5086376;28;20033;-96
2024/03/09 11:24:53;;;;;;;28.42;15.25;;;8.70;99.90;;;;;;5048797;28;20049;-96
2024/03/09 11:27:38;;;;;;;28.45;14.38;;;7.90;99.90;;;;;;5033241;28;20038;-96
2024/03/09 11:31:36;;;;;;;27.45;14.73;;;8.60;99.90;;;;;;5032731;28;20054;-96
2024/03/09 11:42:20;;;;;;;32.92;14.73;;;8.60;99.90;;;;;;4970745;28;20040;-94
2024/03/09 11:45:08;;;;;;;23.42;14.48;;;8.00;99.90;;;;;;4942767;29;20051;-95
2024/03/09 11:48:06;;;;;;;23.10;13.98;;;9.00;99.90;;;;;;4971025;29;20032;-96
2024/03/09 11:50:50;;;;;;;24.77;13.43;;;8.60;99.90;;;;;;4933464;29;20085;-95
2024/03/09 11:53:55;;;;;;;25.02;13.13;;;7.90;99.90;;;;;;4994372;28;20054;-96
2024/03/09 11:57:43;;;;;;;25.13;14.45;;;8.10;99.90;;;;;;4932945;29;20065;-94
2024/03/09 12:01:01;;;;;;;26.17;14.00;;;8.80;99.90;;;;;;4929442;29;20065;-96
2024/03/09 12:03:41;;;;;;;24.52;13.30;;;8.90;99.90;;;;;;4923792;29;20069;-96
2024/03/09 12:06:14;;;;;;;24.10;14.23;;;8.80;99.90;;;;;;4923560;29;20044;-96
2024/03/09 12:08:53;;;;;;;22.25;13.48;;;8.90;99.90;;;;;;5040193;28;20052;-96
2024/03/09 12:11:29;;;;;;;20.17;12.45;;;9.10;99.90;;;;;;5037710;28;20049;-96
2024/03/09 12:13:57;;;;;;;22.40;12.55;;;9.20;99.90;;;;;;5017520;28;20046;-96
2024/03/09 12:16:29;;;;;;;20.23;12.23;;;9.10;99.90;;;;;;5019691;28;20050;-96
2024/03/09 12:19:36;;;;;;;22.60;14.00;;;8.90;99.90;;;;;;5034546;28;20034;-96
2024/03/09 12:22:04;;;;;;;22.42;12.35;;;8.30;99.90;;;;;;5020132;28;20105;-95
2024/03/09 12:24:35;;;;;;;24.05;13.70;;;9.20;99.90;;;;;;5048600;28;20038;-96
2024/03/09 12:27:05;;;;;;;22.13;12.35;;;9.10;99.90;;;;;;5036848;28;20068;-96
2024/03/09 12:29:38;;;;;;;21.35;12.18;;;9.20;99.90;;;;;;5063857;28;20060;-96
2024/03/09 12:32:06;;;;;;;19.38;11.43;;;9.10;99.90;;;;;;5096523;28;20049;-96
2024/03/09 12:34:37;;;;;;;23.30;12.80;;;9.10;99.90;;;;;;5081629;28;20041;-96
2024/03/09 12:37:04;;;;;;;22.63;12.80;;;9.10;99.90;;;;;;5084504;28;20095;-96
2024/03/09 12:39:46;;;;;;;22.92;12.27;;;9.00;99.90;;;;;;5064155;28;20037;-96
2024/03/09 12:42:18;;;;;;;20.80;11.82;;;8.90;99.90;;;;;;5072076;28;20042;-96
2024/03/09 12:44:46;;;;;;;24.08;12.43;;;9.00;99.90;;;;;;5081405;28;20037;-96
2024/03/09 12:47:16;;;;;;;23.98;13.13;;;9.60;99.90;;;;;;5078770;28;20052;-96
2024/03/09 12:49:46;;;;;;;23.17;12.40;;;9.00;99.90;;;;;;5084685;28;20040;-96
2024/03/09 12:52:13;;;;;;;21.88;12.65;;;9.30;99.90;;;;;;5068636;28;20057;-96
2024/03/09 12:54:47;;;;;;;25.85;13.60;;;9.70;99.90;;;;;;5070071;28;20037;-96
2024/03/09 12:57:23;;;;;;;23.38;12.35;;;9.20;99.90;;;;;;5063904;28;20069;-96
2024/03/09 12:59:53;;;;;;;23.20;13.32;;;9.60;99.90;;;;;;5070506;28;20033;-96
2024/03/09 13:02:32;;;;;;;20.40;12.82;;;8.90;99.90;;;;;;5083642;28;20037;-96
2024/03/09 13:05:04;;;;;;;;;;;9.80;99.90;;;;;;5081108;28;20084;-95
2024/03/09 13:07:39;;;;;;;22.63;12.63;;;9.60;99.90;;;;;;5077279;28;19941;-96
2024/03/09 13:10:07;;;;;;;22.38;12.55;;;9.70;99.90;;;;;;5060250;28;20576;-96
2024/03/09 13:12:34;;;;;;;21.73;11.70;;;9.70;99.90;;;;;;5083597;28;20041;-96